Time;durP1;ratioP1;P1;durP2;ratioP2;P2;SDS_P1;SDS_P2;PMS_P1;PMS_P2;Temp;Humidity;BMP_temperature;BMP_pressure;BME280_temperature;BME280_humidity;BME280_pressure;Samples;Min_cycle;Max_cycle;Signal;HPM_P1;HPM_P2
2021/08/30 00:01:26;;;;;;;7.22;6.03;;;15.50;99.90;;;;;;4970090;28;20620;-78
2021/08/30 00:03:52;;;;;;;8.93;6.40;;;15.50;99.90;;;;;;4968197;28;20189;-77
2021/08/30 00:06:17;;;;;;;7.75;5.57;;;15.50;99.90;;;;;;4968859;28;20532;-79
2021/08/30 00:08:43;;;;;;;7.43;6.60;;;15.50;99.90;;;;;;4967959;28;20276;-78
2021/08/30 00:11:08;;;;;;;8.60;6.68;;;15.50;99.90;;;;;;4969126;28;20193;-78
2021/08/30 00:13:34;;;;;;;8.48;6.88;;;15.50;99.90;;;;;;4970558;28;20602;-78
2021/08/30 00:15:59;;;;;;;8.48;6.75;;;15.60;99.90;;;;;;4970381;28;20304;-77
2021/08/30 00:18:26;;;;;;;10.23;8.00;;;15.50;99.90;;;;;;4969270;28;20193;-77
2021/08/30 00:20:52;;;;;;;9.70;6.97;;;15.60;99.90;;;;;;4968634;28;20213;-78
2021/08/30 00:23:18;;;;;;;10.32;7.85;;;15.60;99.90;;;;;;4968904;28;20181;-78
2021/08/30 00:25:44;;;;;;;11.65;8.05;;;15.60;99.90;;;;;;4969686;28;20173;-78
2021/08/30 00:28:09;;;;;;;11.10;8.52;;;15.60;99.90;;;;;;4969713;28;20193;-78
2021/08/30 00:30:35;;;;;;;9.13;7.88;;;15.60;99.90;;;;;;4968895;28;20355;-77
2021/08/30 00:33:01;;;;;;;9.15;7.45;;;15.60;99.90;;;;;;4969633;28;20181;-79
2021/08/30 00:35:26;;;;;;;10.55;7.88;;;15.50;99.90;;;;;;4969516;28;20185;-78
2021/08/30 00:37:52;;;;;;;10.15;7.78;;;15.50;99.90;;;;;;4970382;28;20730;-78
2021/08/30 00:40:18;;;;;;;12.77;8.95;;;15.60;99.90;;;;;;4969726;28;20244;-77
2021/08/30 00:42:47;;;;;;;9.05;7.55;;;15.60;99.90;;;;;;4968329;28;20216;-78
2021/08/30 00:45:14;;;;;;;9.00;7.43;;;15.50;99.90;;;;;;4968936;28;21133;-78
2021/08/30 00:47:42;;;;;;;8.18;7.18;;;15.60;99.90;;;;;;4968220;28;20185;-77
2021/08/30 00:50:10;;;;;;;10.93;8.15;;;15.50;99.90;;;;;;4969080;28;20197;-77
2021/08/30 00:52:36;;;;;;;10.60;7.50;;;15.50;99.90;;;;;;4976155;28;20659;-78
2021/08/30 00:55:02;;;;;;;9.00;7.75;;;15.50;99.90;;;;;;4967777;28;20207;-79
2021/08/30 00:57:28;;;;;;;10.98;7.97;;;15.60;99.90;;;;;;4969427;28;20181;-78
2021/08/30 00:59:53;;;;;;;10.15;7.90;;;15.60;99.90;;;;;;4969574;28;20543;-78
2021/08/30 01:02:19;;;;;;;9.40;7.38;;;15.60;99.90;;;;;;4969325;28;20251;-77
2021/08/30 01:04:45;;;;;;;9.02;6.72;;;15.50;99.90;;;;;;4968866;28;20189;-78
2021/08/30 01:07:25;;;;;;;8.32;7.40;;;15.50;99.90;;;;;;4969513;28;20180;-78
2021/08/30 01:09:59;;;;;;;10.82;7.25;;;15.60;99.90;;;;;;4969082;28;20201;-79
2021/08/30 01:12:57;;;;;;;11.40;8.25;;;15.60;99.90;;;;;;4983719;28;20188;-78
2021/08/30 01:15:31;;;;;;;9.20;7.18;;;15.50;99.90;;;;;;4969052;28;20189;-78
2021/08/30 01:17:59;;;;;;;9.68;7.80;;;15.50;99.90;;;;;;4968057;28;20675;-77
2021/08/30 01:20:28;;;;;;;9.75;7.70;;;15.50;99.90;;;;;;4975506;28;20891;-77
2021/08/30 01:22:57;;;;;;;10.02;7.72;;;15.50;99.90;;;;;;4968585;28;20197;-77
2021/08/30 01:25:25;;;;;;;11.15;8.32;;;15.50;99.90;;;;;;4982990;28;20258;-78
2021/08/30 01:27:52;;;;;;;8.48;7.28;;;15.50;99.90;;;;;;4976247;28;20562;-78
2021/08/30 01:30:21;;;;;;;12.32;8.63;;;15.50;99.90;;;;;;4967990;28;20819;-77
2021/08/30 01:32:50;;;;;;;10.77;7.57;;;15.50;99.90;;;;;;4968667;28;20263;-77
2021/08/30 01:35:25;;;;;;;9.32;7.70;;;15.50;99.90;;;;;;4983167;28;20188;-79
2021/08/30 01:37:54;;;;;;;10.93;7.68;;;15.50;99.90;;;;;;4968275;28;20682;-78
2021/08/30 01:40:23;;;;;;;9.73;7.70;;;15.50;99.90;;;;;;4974734;28;20212;-77
2021/08/30 01:42:51;;;;;;;10.48;8.50;;;15.50;99.90;;;;;;4966506;28;20188;-77
2021/08/30 01:45:21;;;;;;;9.13;7.63;;;15.40;99.90;;;;;;4968003;28;20207;-77
2021/08/30 01:47:48;;;;;;;9.55;6.95;;;15.40;99.90;;;;;;4974662;28;20183;-78
2021/08/30 01:50:18;;;;;;;9.15;7.25;;;15.40;99.90;;;;;;4966521;28;20307;-78
2021/08/30 01:52:44;;;;;;;9.32;7.47;;;15.50;99.90;;;;;;4967906;28;20197;-77
2021/08/30 02:03:10;;;;;;;9.50;7.47;;;15.50;99.90;;;;;;4968099;28;20177;-78
2021/08/30 02:05:36;;;;;;;8.98;7.15;;;15.50;99.90;;;;;;4966819;28;20189;-78
2021/08/30 02:08:02;;;;;;;8.60;6.95;;;15.50;99.90;;;;;;4967480;28;20729;-79
2021/08/30 02:10:27;;;;;;;9.02;7.68;;;15.50;99.90;;;;;;4966685;28;20204;-77
2021/08/30 02:12:53;;;;;;;10.07;7.45;;;15.50;99.90;;;;;;4966680;28;20196;-78
2021/08/30 02:15:19;;;;;;;10.82;7.70;;;15.50;99.90;;;;;;4968255;28;20193;-77
2021/08/30 02:17:48;;;;;;;10.38;7.72;;;15.50;99.90;;;;;;4967785;28;20244;-77
2021/08/30 02:20:18;;;;;;;11.18;7.93;;;15.50;99.90;;;;;;4956892;28;21000;-77
2021/08/30 02:22:44;;;;;;;8.02;7.13;;;15.50;99.90;;;;;;4967625;28;20663;-78
2021/08/30 02:25:14;;;;;;;8.63;7.25;;;15.50;99.90;;;;;;4966433;28;20177;-77
2021/08/30 02:27:48;;;;;;;9.23;7.38;;;15.50;99.90;;;;;;4968146;28;20189;-77
2021/08/30 02:30:37;;;;;;;9.80;7.40;;;15.40;99.90;;;;;;4967312;28;20227;-78
2021/08/30 02:33:12;;;;;;;9.88;7.05;;;15.40;99.90;;;;;;4968282;28;21034;-79
2021/08/30 02:35:41;;;;;;;10.07;7.00;;;15.40;99.90;;;;;;4968216;28;20176;-78
2021/08/30 02:38:09;;;;;;;8.30;6.85;;;15.40;99.90;;;;;;4967803;28;20325;-78
2021/08/30 02:40:36;;;;;;;9.80;7.22;;;15.40;99.90;;;;;;4974834;28;20770;-78
2021/08/30 02:43:04;;;;;;;9.10;7.78;;;15.40;99.90;;;;;;4982117;28;20221;-78
2021/08/30 02:45:30;;;;;;;11.77;7.72;;;15.30;99.90;;;;;;4973362;28;20177;-79
2021/08/30 02:48:01;;;;;;;9.43;7.15;;;15.40;99.90;;;;;;4981125;28;20276;-78
2021/08/30 02:50:28;;;;;;;9.35;7.57;;;15.30;99.90;;;;;;4965465;28;20205;-79
2021/08/30 02:52:56;;;;;;;10.10;7.53;;;15.30;99.90;;;;;;4982104;28;20694;-78
2021/08/30 02:55:22;;;;;;;8.73;6.78;;;15.30;99.90;;;;;;4967001;28;20204;-78
2021/08/30 02:57:49;;;;;;;7.82;6.85;;;15.40;99.90;;;;;;4966328;28;20244;-78
2021/08/30 03:00:16;;;;;;;10.05;7.22;;;15.30;99.90;;;;;;4966903;28;20259;-78
2021/08/30 03:02:43;;;;;;;9.70;7.75;;;15.40;99.90;;;;;;4974103;28;20204;-78
2021/08/30 03:05:10;;;;;;;9.27;7.40;;;15.40;99.90;;;;;;4966174;28;20264;-78
2021/08/30 03:07:37;;;;;;;8.73;7.53;;;15.40;99.90;;;;;;4974741;28;20185;-80
2021/08/30 03:10:05;;;;;;;8.35;6.80;;;15.40;99.90;;;;;;4966757;28;20247;-78
2021/08/30 03:12:35;;;;;;;7.88;6.53;;;15.40;99.90;;;;;;4966310;28;20183;-77
2021/08/30 03:15:07;;;;;;;10.35;7.15;;;15.40;99.90;;;;;;4966312;28;20181;-78
2021/08/30 03:17:35;;;;;;;8.32;6.70;;;15.40;99.90;;;;;;4967085;28;20187;-78
2021/08/30 03:20:01;;;;;;;8.98;6.80;;;15.40;99.90;;;;;;4967260;28;20200;-78
2021/08/30 03:22:29;;;;;;;9.02;7.18;;;15.40;99.90;;;;;;4967095;28;20204;-78
2021/08/30 03:24:56;;;;;;;9.32;6.88;;;15.40;99.90;;;;;;4967405;28;21000;-78
2021/08/30 03:27:23;;;;;;;8.27;7.10;;;15.30;99.90;;;;;;4967175;28;20177;-78
2021/08/30 03:29:50;;;;;;;12.20;7.65;;;15.30;99.90;;;;;;4966471;28;20197;-78
2021/08/30 03:32:16;;;;;;;9.13;7.32;;;15.30;99.90;;;;;;4966009;28;20208;-79
2021/08/30 03:34:43;;;;;;;10.13;6.97;;;15.30;99.90;;;;;;4965267;28;20213;-77
2021/08/30 03:37:09;;;;;;;7.72;6.72;;;15.30;99.90;;;;;;4969739;28;20867;-77
2021/08/30 03:39:35;;;;;;;8.90;6.75;;;15.30;99.90;;;;;;4985541;28;20223;-78
2021/08/30 03:42:03;;;;;;;7.78;6.57;;;15.40;99.90;;;;;;4970569;28;20601;-79
2021/08/30 03:44:30;;;;;;;7.70;6.15;;;15.30;99.90;;;;;;4968693;28;20573;-79
2021/08/30 03:46:56;;;;;;;11.38;7.10;;;15.30;99.90;;;;;;4970322;28;20189;-78
2021/08/30 03:49:24;;;;;;;7.15;6.18;;;15.30;99.90;;;;;;4970254;28;20205;-77
2021/08/30 03:51:52;;;;;;;8.13;6.60;;;15.30;99.90;;;;;;4969252;28;20185;-78
2021/08/30 03:54:17;;;;;;;7.88;5.82;;;15.30;99.90;;;;;;4968332;28;20232;-77
2021/08/30 03:56:45;;;;;;;8.35;6.20;;;15.30;99.90;;;;;;4968243;28;20613;-79
2021/08/30 03:59:12;;;;;;;7.38;6.43;;;15.30;99.90;;;;;;4968818;28;20224;-78
2021/08/30 04:01:42;;;;;;;8.27;6.03;;;15.30;99.90;;;;;;4968416;28;20221;-79
2021/08/30 04:04:16;;;;;;;9.45;6.63;;;15.30;99.90;;;;;;4968700;28;20248;-78
2021/08/30 04:06:46;;;;;;;8.35;5.78;;;15.20;99.90;;;;;;4969616;28;20177;-77
2021/08/30 04:09:19;;;;;;;8.27;5.90;;;15.30;99.90;;;;;;4970601;28;20193;-79
2021/08/30 04:11:45;;;;;;;8.32;6.57;;;15.30;99.90;;;;;;4968745;28;20185;-78
2021/08/30 04:14:13;;;;;;;9.27;6.45;;;15.20;99.90;;;;;;4969810;28;20340;-78
2021/08/30 04:16:40;;;;;;;9.07;6.72;;;15.20;99.90;;;;;;4970409;28;20185;-79
2021/08/30 04:19:06;;;;;;;8.00;6.57;;;15.20;99.90;;;;;;4971211;28;20197;-79
2021/08/30 04:21:33;;;;;;;6.78;5.72;;;15.20;99.90;;;;;;4969455;28;20205;-79
2021/08/30 04:24:00;;;;;;;8.00;6.22;;;15.10;99.90;;;;;;4970988;28;20177;-78
2021/08/30 04:26:26;;;;;;;7.47;6.28;;;15.10;99.90;;;;;;4970260;28;20181;-79
2021/08/30 04:28:51;;;;;;;8.73;6.40;;;15.20;99.90;;;;;;4968958;28;20304;-78
2021/08/30 04:33:50;;;;;;;6.97;5.90;;;15.10;99.90;;;;;;5019681;23;20237;-78
2021/08/30 04:36:15;;;;;;;7.05;5.80;;;15.10;99.90;;;;;;4969312;28;20639;-78
2021/08/30 04:38:41;;;;;;;8.55;6.35;;;15.20;99.90;;;;;;4967927;28;20181;-78
2021/08/30 04:41:07;;;;;;;6.32;5.45;;;15.20;99.90;;;;;;4969621;28;20752;-78
2021/08/30 04:43:32;;;;;;;8.05;5.82;;;15.10;99.90;;;;;;4969595;28;20264;-78
2021/08/30 04:45:58;;;;;;;8.57;5.95;;;15.20;99.90;;;;;;4969484;28;20181;-78
2021/08/30 04:48:23;;;;;;;8.45;6.50;;;15.20;99.90;;;;;;4968187;28;20185;-79
2021/08/30 04:50:49;;;;;;;7.72;6.25;;;15.20;99.90;;;;;;4967536;28;20267;-79
2021/08/30 04:53:15;;;;;;;8.88;6.00;;;15.20;99.90;;;;;;4966678;28;20304;-79
2021/08/30 04:55:40;;;;;;;7.97;6.25;;;15.20;99.90;;;;;;4966957;28;21296;-80
2021/08/30 04:58:09;;;;;;;7.82;6.05;;;15.20;99.90;;;;;;4967397;28;20189;-79
2021/08/30 05:00:35;;;;;;;6.80;5.63;;;15.20;99.90;;;;;;4967392;28;20205;-79
2021/08/30 05:03:00;;;;;;;7.07;6.18;;;15.20;99.90;;;;;;4966945;28;20196;-79
2021/08/30 05:05:26;;;;;;;8.30;6.22;;;15.20;99.90;;;;;;4967031;28;20185;-79
2021/08/30 05:07:51;;;;;;;6.57;5.63;;;15.20;99.90;;;;;;4967260;28;20317;-79
2021/08/30 05:10:17;;;;;;;8.80;5.78;;;15.30;99.90;;;;;;4968323;28;20675;-80
2021/08/30 05:12:43;;;;;;;7.85;5.70;;;15.30;99.90;;;;;;4968067;28;20181;-79
2021/08/30 05:15:09;;;;;;;10.32;6.47;;;15.20;99.90;;;;;;4968711;28;20908;-79
2021/08/30 05:17:34;;;;;;;7.35;5.32;;;15.20;99.90;;;;;;4966600;28;20181;-78
2021/08/30 05:20:00;;;;;;;7.60;5.90;;;15.20;99.90;;;;;;4967259;28;20212;-80
2021/08/30 05:22:25;;;;;;;7.07;5.70;;;15.20;99.90;;;;;;4967908;28;20196;-79
2021/08/30 05:24:51;;;;;;;7.80;5.97;;;15.20;99.90;;;;;;4968431;28;20256;-79
2021/08/30 05:27:17;;;;;;;7.85;5.93;;;15.20;99.90;;;;;;4966546;28;20700;-80
2021/08/30 05:29:42;;;;;;;7.45;5.55;;;15.20;99.90;;;;;;4968434;28;20211;-79
2021/08/30 05:32:08;;;;;;;9.48;6.25;;;15.30;99.90;;;;;;4967261;28;20188;-80
2021/08/30 05:34:34;;;;;;;6.60;5.90;;;15.30;99.90;;;;;;4969500;28;20613;-79
2021/08/30 05:37:00;;;;;;;7.30;6.20;;;15.40;99.90;;;;;;4970114;28;20196;-81
2021/08/30 05:39:25;;;;;;;8.57;6.95;;;15.40;99.90;;;;;;4969351;28;20210;-80
2021/08/30 05:41:51;;;;;;;7.65;6.07;;;15.40;99.90;;;;;;4967949;28;20201;-81
2021/08/30 05:44:16;;;;;;;8.00;6.15;;;15.40;99.90;;;;;;4968062;28;20316;-79
2021/08/30 05:46:42;;;;;;;14.98;6.20;;;15.50;99.90;;;;;;4968018;28;20192;-81
2021/08/30 05:49:08;;;;;;;8.45;6.25;;;15.50;99.90;;;;;;4969530;28;20208;-81
2021/08/30 05:51:34;;;;;;;7.50;5.75;;;15.40;99.90;;;;;;4969236;28;20200;-81
2021/08/30 05:54:00;;;;;;;7.85;6.25;;;15.40;99.90;;;;;;4969327;28;20284;-80
2021/08/30 05:56:27;;;;;;;8.40;6.50;;;15.40;99.90;;;;;;4967673;28;20191;-81
2021/08/30 05:58:52;;;;;;;8.95;6.68;;;15.40;99.90;;;;;;4967693;28;20255;-81
2021/08/30 06:01:18;;;;;;;7.70;6.45;;;15.50;99.90;;;;;;4969137;28;20959;-79
2021/08/30 06:03:44;;;;;;;8.95;6.50;;;15.50;99.90;;;;;;4967501;28;20200;-80
2021/08/30 06:06:09;;;;;;;8.25;6.82;;;15.60;99.90;;;;;;4968311;28;20193;-80
2021/08/30 06:08:35;;;;;;;7.55;6.30;;;15.60;99.90;;;;;;4967224;28;20180;-79
2021/08/30 06:11:00;;;;;;;7.72;6.18;;;15.60;99.90;;;;;;4966891;28;21149;-80
2021/08/30 06:13:26;;;;;;;9.50;6.88;;;15.60;99.90;;;;;;4968781;28;20252;-81
2021/08/30 06:15:53;;;;;;;8.32;6.60;;;15.70;99.90;;;;;;4968377;28;20683;-81
2021/08/30 06:18:19;;;;;;;7.70;5.75;;;15.70;99.90;;;;;;4967440;28;20208;-82
2021/08/30 06:20:45;;;;;;;7.93;5.93;;;15.80;99.90;;;;;;4968788;28;20236;-82
2021/08/30 06:23:10;;;;;;;7.45;6.00;;;15.80;99.90;;;;;;4967769;28;20228;-79
2021/08/30 06:25:36;;;;;;;8.38;6.10;;;15.80;99.90;;;;;;4967331;28;20181;-82
2021/08/30 06:28:02;;;;;;;7.57;6.13;;;15.80;99.90;;;;;;4968825;28;20185;-80
2021/08/30 06:30:28;;;;;;;7.65;6.05;;;15.80;99.90;;;;;;4967886;28;20212;-82
2021/08/30 06:32:54;;;;;;;7.90;6.05;;;15.80;99.90;;;;;;4968442;28;20197;-81
2021/08/30 06:35:21;;;;;;;6.85;5.53;;;15.80;99.90;;;;;;4968034;28;20185;-82
2021/08/30 06:37:47;;;;;;;11.73;7.15;;;15.80;99.90;;;;;;4969680;28;20534;-81
2021/08/30 06:40:13;;;;;;;6.68;5.60;;;16.00;99.90;;;;;;4968475;28;20265;-81
2021/08/30 06:42:39;;;;;;;7.55;5.88;;;16.00;99.90;;;;;;4969425;28;20216;-81
2021/08/30 06:45:05;;;;;;;9.40;6.07;;;16.10;99.90;;;;;;4969384;28;21242;-80
2021/08/30 06:47:32;;;;;;;7.00;6.00;;;16.10;99.90;;;;;;4968449;28;20196;-79
2021/08/30 06:49:57;;;;;;;8.48;6.35;;;16.20;99.90;;;;;;4970128;28;20203;-79
2021/08/30 06:52:23;;;;;;;8.48;5.45;;;16.40;99.90;;;;;;4968847;28;20181;-78
2021/08/30 06:54:49;;;;;;;7.53;5.65;;;16.30;99.90;;;;;;4967264;28;20199;-79
2021/08/30 06:57:15;;;;;;;6.70;5.35;;;16.30;99.90;;;;;;4969874;28;20184;-79
2021/08/30 06:59:41;;;;;;;7.43;5.47;;;16.20;99.90;;;;;;4964277;28;20197;-79
2021/08/30 07:02:07;;;;;;;6.10;5.32;;;16.30;99.90;;;;;;4965933;28;20196;-79
2021/08/30 07:04:33;;;;;;;8.18;5.53;;;16.40;99.90;;;;;;4963729;28;20181;-76
2021/08/30 07:06:58;;;;;;;5.40;4.82;;;16.40;99.90;;;;;;4964727;28;20244;-77
2021/08/30 07:09:24;;;;;;;7.40;5.97;;;16.40;99.90;;;;;;4964446;28;20209;-77
2021/08/30 07:11:51;;;;;;;6.25;5.25;;;16.40;99.90;;;;;;4967669;28;20197;-77
2021/08/30 07:14:17;;;;;;;5.85;4.85;;;16.40;99.90;;;;;;4968217;28;20181;-77
2021/08/30 07:16:44;;;;;;;5.53;4.90;;;16.40;99.90;;;;;;4968686;28;20219;-76
2021/08/30 07:19:10;;;;;;;6.20;5.53;;;16.50;99.90;;;;;;4968656;28;20196;-77
2021/08/30 07:21:35;;;;;;;6.35;5.60;;;16.60;99.90;;;;;;4968724;28;20614;-77
2021/08/30 07:24:01;;;;;;;6.78;5.22;;;16.70;99.90;;;;;;4968753;28;20192;-77
2021/08/30 07:26:27;;;;;;;8.50;4.93;;;16.70;99.90;;;;;;4969146;28;20260;-77
2021/08/30 07:28:52;;;;;;;5.72;4.70;;;16.70;99.90;;;;;;4967377;28;20185;-74
2021/08/30 07:31:18;;;;;;;5.28;4.78;;;16.80;99.90;;;;;;4967320;28;20200;-78
2021/08/30 07:33:44;;;;;;;7.40;5.65;;;16.80;99.90;;;;;;4968422;28;20643;-76
2021/08/30 07:36:09;;;;;;;5.22;4.45;;;16.90;99.90;;;;;;4966776;28;20195;-79
2021/08/30 07:38:35;;;;;;;5.90;4.60;;;16.90;99.90;;;;;;4966629;28;20726;-76
2021/08/30 07:41:01;;;;;;;6.30;5.55;;;16.90;99.90;;;;;;4967308;28;20213;-78
2021/08/30 07:43:27;;;;;;;6.47;4.85;;;16.90;99.90;;;;;;4969727;28;20944;-78
2021/08/30 07:45:53;;;;;;;6.68;5.10;;;16.70;99.90;;;;;;4968359;28;20762;-75
2021/08/30 07:48:18;;;;;;;6.72;5.45;;;16.70;99.90;;;;;;4967679;28;20260;-76
2021/08/30 07:50:44;;;;;;;5.15;4.65;;;16.80;99.90;;;;;;4966410;28;20298;-75
2021/08/30 07:53:10;;;;;;;6.30;5.20;;;16.90;99.90;;;;;;4967986;28;20191;-76
2021/08/30 07:55:36;;;;;;;5.72;5.05;;;17.00;99.90;;;;;;4967170;28;20185;-75
2021/08/30 07:58:05;;;;;;;5.63;4.80;;;17.20;99.90;;;;;;4967509;28;20255;-78
2021/08/30 08:00:32;;;;;;;5.90;4.28;;;17.30;99.90;;;;;;4964088;28;20209;-77
2021/08/30 08:02:58;;;;;;;5.15;4.22;;;17.20;99.90;;;;;;4966879;28;20441;-77
2021/08/30 08:05:23;;;;;;;5.68;4.43;;;17.10;99.90;;;;;;4965296;28;20204;-77
2021/08/30 08:07:49;;;;;;;5.13;4.15;;;17.00;99.90;;;;;;4966494;28;20615;-75
2021/08/30 08:10:15;;;;;;;5.63;5.03;;;16.70;99.90;;;;;;4965514;28;20214;-77
2021/08/30 08:12:40;;;;;;;5.47;4.50;;;16.70;99.90;;;;;;4969062;28;20236;-77
2021/08/30 08:15:07;;;;;;;6.25;4.60;;;16.70;99.90;;;;;;4967976;28;20560;-75
2021/08/30 08:17:37;;;;;;;5.55;4.50;;;16.60;99.90;;;;;;4966817;28;20405;-77
2021/08/30 08:20:04;;;;;;;6.68;5.35;;;16.60;99.90;;;;;;4967470;28;20434;-78
2021/08/30 08:22:34;;;;;;;6.07;5.18;;;16.60;99.90;;;;;;4970370;28;20256;-77
2021/08/30 08:25:01;;;;;;;5.78;5.15;;;16.70;99.90;;;;;;4971810;28;20280;-76
2021/08/30 08:27:27;;;;;;;7.40;5.22;;;16.70;99.90;;;;;;4970404;28;20716;-77
2021/08/30 08:29:52;;;;;;;5.10;4.60;;;16.90;99.90;;;;;;4972580;28;20240;-79
2021/08/30 08:32:18;;;;;;;5.55;4.82;;;17.00;99.90;;;;;;4973355;28;20277;-78
2021/08/30 08:34:44;;;;;;;4.97;4.43;;;16.90;99.90;;;;;;4973874;28;20651;-77
2021/08/30 08:37:09;;;;;;;5.20;4.68;;;17.10;99.90;;;;;;4974394;28;20657;-76
2021/08/30 08:39:35;;;;;;;6.30;5.10;;;17.10;99.90;;;;;;4973979;28;20228;-78
2021/08/30 08:42:02;;;;;;;7.18;4.40;;;17.20;99.90;;;;;;4972930;28;20213;-77
2021/08/30 08:44:27;;;;;;;5.00;4.13;;;17.30;99.90;;;;;;4973242;28;20275;-77
2021/08/30 08:46:53;;;;;;;5.70;4.78;;;17.40;99.90;;;;;;4973598;28;20207;-79
2021/08/30 08:49:22;;;;;;;7.05;4.55;;;17.40;99.90;;;;;;4973842;28;20203;-78
2021/08/30 08:51:48;;;;;;;5.57;4.55;;;17.50;99.90;;;;;;4973198;28;20639;-79
2021/08/30 08:54:14;;;;;;;4.82;4.32;;;17.50;99.90;;;;;;4974210;28;20228;-77
2021/08/30 08:56:40;;;;;;;5.20;4.30;;;17.60;99.90;;;;;;4970447;28;20177;-78
2021/08/30 08:59:06;;;;;;;6.43;4.25;;;17.50;99.90;;;;;;4969469;28;20209;-79
2021/08/30 09:01:35;;;;;;;5.03;4.20;;;17.70;99.90;;;;;;4968988;28;20213;-77
2021/08/30 09:04:01;;;;;;;4.95;4.18;;;17.90;99.90;;;;;;4975183;28;20241;-78
2021/08/30 09:06:41;;;;;;;6.00;4.30;;;17.80;99.90;;;;;;4971947;28;20193;-77
2021/08/30 09:09:10;;;;;;;4.80;4.03;;;17.70;99.90;;;;;;4988685;28;20208;-78
2021/08/30 09:11:44;;;;;;;7.93;4.53;;;17.70;99.90;;;;;;4973993;28;20185;-77
2021/08/30 09:14:21;;;;;;;5.35;4.00;;;17.60;99.90;;;;;;4974625;28;20264;-78
2021/08/30 09:16:49;;;;;;;5.68;3.95;;;17.30;99.90;;;;;;4973074;28;20196;-79
2021/08/30 09:19:16;;;;;;;6.85;4.35;;;17.20;99.90;;;;;;4974398;28;20201;-76
2021/08/30 09:21:48;;;;;;;5.10;4.28;;;17.30;99.90;;;;;;4974635;28;20449;-76
2021/08/30 09:24:23;;;;;;;4.85;4.35;;;17.30;99.90;;;;;;4974301;28;20241;-78
2021/08/30 09:26:54;;;;;;;7.53;4.85;;;17.30;99.90;;;;;;4974354;28;20542;-76
2021/08/30 09:29:25;;;;;;;5.35;4.10;;;17.50;99.90;;;;;;4972755;28;20225;-76
2021/08/30 09:32:08;;;;;;;5.65;4.63;;;17.70;99.90;;;;;;4974592;28;20215;-78
2021/08/30 09:34:35;;;;;;;4.78;3.95;;;17.80;99.90;;;;;;4972101;28;20222;-78
2021/08/30 09:37:02;;;;;;;3.92;3.53;;;17.90;99.90;;;;;;4974184;28;21201;-77
2021/08/30 09:39:30;;;;;;;4.88;4.10;;;18.00;99.90;;;;;;4972578;28;20212;-77
2021/08/30 09:41:56;;;;;;;4.53;4.13;;;18.10;99.90;;;;;;4974569;28;20208;-78
2021/08/30 09:44:27;;;;;;;5.38;4.10;;;18.40;99.90;;;;;;4973955;28;20262;-76
2021/08/30 09:46:53;;;;;;;4.55;3.80;;;18.50;99.90;;;;;;4989242;28;20675;-78
2021/08/30 09:49:24;;;;;;;4.15;3.28;;;18.60;99.90;;;;;;4973530;28;20659;-77
2021/08/30 09:51:51;;;;;;;4.72;3.60;;;18.60;99.90;;;;;;4973173;28;20280;-76
2021/08/30 09:54:19;;;;;;;4.60;3.60;;;18.40;99.90;;;;;;4974670;28;20216;-77
2021/08/30 09:56:47;;;;;;;3.50;3.10;;;18.20;99.90;;;;;;4973512;28;20200;-78
2021/08/30 09:59:13;;;;;;;4.80;3.20;;;17.90;99.90;;;;;;4973851;28;20215;-77
2021/08/30 10:01:40;;;;;;;3.30;2.97;;;17.70;99.90;;;;;;4974141;28;20212;-78
2021/08/30 10:04:09;;;;;;;4.05;3.03;;;17.60;99.90;;;;;;4973964;28;20189;-77
2021/08/30 10:06:39;;;;;;;3.22;2.92;;;17.60;99.90;;;;;;4973713;28;20185;-76
2021/08/30 10:09:10;;;;;;;3.47;2.97;;;17.60;99.90;;;;;;4973144;28;20785;-78
2021/08/30 10:11:37;;;;;;;3.67;2.92;;;17.60;99.90;;;;;;4974349;28;20189;-77
2021/08/30 10:14:05;;;;;;;4.15;3.45;;;17.60;99.90;;;;;;4972316;28;20496;-78
2021/08/30 10:16:33;;;;;;;3.83;3.15;;;17.40;99.90;;;;;;4966846;28;20271;-86
2021/08/30 10:18:59;;;;;;;3.70;3.30;;;17.40;99.90;;;;;;4964582;28;20208;-78
2021/08/30 10:21:28;;;;;;;3.45;3.15;;;17.30;99.90;;;;;;4965085;28;20216;-77
2021/08/30 10:23:53;;;;;;;4.10;3.22;;;17.30;99.90;;;;;;4968405;28;20208;-78
2021/08/30 10:26:20;;;;;;;4.03;3.15;;;17.20;99.90;;;;;;4967532;28;20644;-78
2021/08/30 10:28:47;;;;;;;3.35;3.00;;;17.20;99.90;;;;;;4968030;28;20239;-78
2021/08/30 10:31:25;;;;;;;3.38;3.08;;;17.20;99.90;;;;;;4966487;28;20192;-78
2021/08/30 10:33:57;;;;;;;3.50;3.00;;;17.20;99.90;;;;;;4968258;28;20654;-81
2021/08/30 10:36:26;;;;;;;3.92;2.97;;;17.10;99.90;;;;;;4965144;28;20197;-79
2021/08/30 10:38:57;;;;;;;3.70;2.90;;;17.10;99.90;;;;;;4965563;28;20199;-81
2021/08/30 10:41:35;;;;;;;4.53;3.20;;;16.90;99.90;;;;;;4966724;28;20213;-79
2021/08/30 10:44:26;;;;;;;3.78;3.33;;;17.00;99.90;;;;;;4965597;28;20225;-82
2021/08/30 10:46:55;;;;;;;3.70;3.13;;;17.10;99.90;;;;;;4959043;28;20203;-79
2021/08/30 10:49:27;;;;;;;4.30;3.17;;;17.10;99.90;;;;;;4971774;28;20247;-79
2021/08/30 10:52:11;;;;;;;4.93;3.08;;;17.20;99.90;;;;;;4971984;28;20192;-79
2021/08/30 10:54:48;;;;;;;3.75;3.22;;;17.20;99.90;;;;;;4972754;28;20180;-78
2021/08/30 10:57:14;;;;;;;3.85;3.35;;;17.10;99.90;;;;;;4970330;28;20195;-80
2021/08/30 10:59:42;;;;;;;4.05;3.05;;;17.10;99.90;;;;;;4968198;28;20204;-79
2021/08/30 11:02:08;;;;;;;2.92;2.63;;;17.10;99.90;;;;;;4970830;28;20213;-81
2021/08/30 11:04:39;;;;;;;3.70;3.08;;;17.00;99.90;;;;;;4967557;28;20259;-78
2021/08/30 11:07:07;;;;;;;5.63;2.85;;;17.00;99.90;;;;;;4972704;28;20188;-79
2021/08/30 11:09:45;;;;;;;4.03;2.90;;;17.00;99.90;;;;;;4971965;28;20207;-80
2021/08/30 11:12:12;;;;;;;4.10;2.78;;;17.00;99.90;;;;;;4972890;28;20738;-80
2021/08/30 11:14:39;;;;;;;3.33;2.50;;;17.10;99.90;;;;;;4974438;28;20224;-78
2021/08/30 11:17:05;;;;;;;3.20;2.58;;;17.20;99.90;;;;;;4969021;28;20272;-81
2021/08/30 11:19:31;;;;;;;2.50;2.30;;;17.40;99.90;;;;;;4965331;28;20235;-81
2021/08/30 11:21:59;;;;;;;3.13;2.50;;;17.50;99.90;;;;;;4964660;28;20205;-81
2021/08/30 11:24:40;;;;;;;3.20;2.67;;;17.70;99.90;;;;;;4967109;28;20188;-80
2021/08/30 11:27:10;;;;;;;3.47;2.65;;;17.60;99.90;;;;;;4981050;28;20535;-80
2021/08/30 11:29:45;;;;;;;2.88;2.53;;;17.50;99.90;;;;;;4967978;28;20201;-80
2021/08/30 11:32:12;;;;;;;4.05;2.78;;;17.50;99.90;;;;;;4981088;28;20733;-81
2021/08/30 11:37:08;;;;;;;4.10;2.95;;;17.50;99.90;;;;;;4927309;29;20226;-68
2021/08/30 11:39:36;;;;;;;3.35;2.60;;;17.40;99.90;;;;;;4928952;29;20186;-67
2021/08/30 11:42:12;;;;;;;4.75;2.88;;;17.30;99.90;;;;;;4929555;29;20237;-67
2021/08/30 11:44:39;;;;;;;4.00;2.97;;;17.30;99.90;;;;;;4929724;29;20661;-68
2021/08/30 11:47:10;;;;;;;3.42;2.70;;;17.30;99.90;;;;;;4930370;29;20187;-67
2021/08/30 11:49:51;;;;;;;3.47;2.63;;;17.30;99.90;;;;;;4930365;29;20184;-68
2021/08/30 11:52:20;;;;;;;2.80;2.60;;;17.30;99.90;;;;;;4930500;29;20282;-67
2021/08/30 11:55:04;;;;;;;2.75;2.45;;;17.50;99.90;;;;;;4929889;29;20620;-68
2021/08/30 11:57:43;;;;;;;3.20;2.90;;;17.50;99.90;;;;;;4928097;29;20194;-68
2021/08/30 12:00:15;;;;;;;3.92;2.60;;;17.70;99.90;;;;;;4929815;29;20197;-69
2021/08/30 12:02:42;;;;;;;3.47;2.78;;;17.90;99.90;;;;;;4930329;29;20202;-68
2021/08/30 12:05:09;;;;;;;2.75;2.45;;;17.80;99.90;;;;;;4929739;29;20202;-69
2021/08/30 12:07:36;;;;;;;4.03;2.63;;;17.70;99.90;;;;;;4930130;29;20182;-67
2021/08/30 12:10:05;;;;;;;2.88;2.60;;;17.80;99.90;;;;;;4929958;29;20178;-68
2021/08/30 12:12:50;;;;;;;4.40;2.65;;;17.80;99.90;;;;;;4929704;29;20197;-68
2021/08/30 12:15:19;;;;;;;3.15;2.40;;;17.90;99.90;;;;;;4928666;29;20244;-67
2021/08/30 12:17:50;;;;;;;2.85;2.55;;;18.00;99.90;;;;;;4929725;29;20186;-68
2021/08/30 12:20:36;;;;;;;4.57;3.22;;;17.90;99.90;;;;;;4929648;29;20564;-69
2021/08/30 12:23:08;;;;;;;3.05;2.58;;;17.80;99.90;;;;;;4929871;29;20218;-67
2021/08/30 12:25:36;;;;;;;3.33;3.03;;;17.70;99.90;;;;;;4928774;29;20214;-67
2021/08/30 12:28:02;;;;;;;3.97;3.15;;;17.80;99.90;;;;;;4929772;29;20197;-67
2021/08/30 12:30:40;;;;;;;4.68;2.97;;;17.90;99.90;;;;;;4929955;29;20214;-68
2021/08/30 12:33:19;;;;;;;3.33;2.88;;;18.10;99.90;;;;;;4930353;29;20268;-68
2021/08/30 12:35:53;;;;;;;4.18;3.38;;;18.30;99.90;;;;;;4927342;29;20218;-68
2021/08/30 12:38:22;;;;;;;4.13;2.85;;;18.30;99.90;;;;;;4928251;29;20610;-69
2021/08/30 12:40:50;;;;;;;3.92;3.30;;;18.10;99.90;;;;;;4929616;29;20238;-68
2021/08/30 12:43:16;;;;;;;3.42;2.80;;;18.00;99.90;;;;;;4928127;29;20193;-69
2021/08/30 12:45:43;;;;;;;3.13;2.65;;;17.80;99.90;;;;;;4928974;29;20202;-68
2021/08/30 12:48:09;;;;;;;3.53;2.58;;;17.50;99.90;;;;;;4929654;29;20175;-69
2021/08/30 12:50:37;;;;;;;3.30;2.42;;;17.40;99.90;;;;;;4930440;29;20602;-67
2021/08/30 12:53:03;;;;;;;4.65;2.88;;;17.40;99.90;;;;;;4929777;29;20249;-68
2021/08/30 12:55:29;;;;;;;3.20;2.65;;;17.50;99.90;;;;;;4929184;29;20194;-66
2021/08/30 12:57:55;;;;;;;3.47;2.83;;;17.50;99.90;;;;;;4929552;29;20186;-66
2021/08/30 13:00:21;;;;;;;3.65;2.78;;;17.40;99.90;;;;;;4928366;29;20653;-67
2021/08/30 13:02:51;;;;;;;3.28;2.78;;;17.40;99.90;;;;;;4929408;29;20334;-67